Time;durP1;ratioP1;P1;durP2;ratioP2;P2;SDS_P1;SDS_P2;PMS_P1;PMS_P2;Temp;Humidity;BMP_temperature;BMP_pressure;BME280_temperature;BME280_humidity;BME280_pressure;Samples;Min_cycle;Max_cycle;Signal;HPM_P1;HPM_P2
2022/06/29 00:01:38;;;;;;;18.55;6.97;;;;;;;;;;9992339;28;20081;-63
2022/06/29 00:06:31;;;;;;;10.40;4.80;;;;;;;;;;9990518;28;20066;-64
2022/06/29 00:11:25;;;;;;;14.85;4.72;;;;;;;;;;9991847;28;20141;-64
2022/06/29 00:16:19;;;;;;;20.92;4.32;;;;;;;;;;9990660;28;20077;-63
2022/06/29 00:21:13;;;;;;;10.05;4.85;;;;;;;;;;9991749;28;20058;-64
2022/06/29 00:26:06;;;;;;;9.50;4.57;;;;;;;;;;9991705;28;20062;-63
2022/06/29 00:31:00;;;;;;;13.20;4.07;;;;;;;;;;9990981;28;20051;-63
2022/06/29 00:35:54;;;;;;;17.38;4.00;;;;;;;;;;9990589;28;20129;-64
2022/06/29 00:40:50;;;;;;;22.27;5.85;;;;;;;;;;9991393;28;20050;-64
2022/06/29 00:45:44;;;;;;;20.17;5.72;;;;;;;;;;9990285;28;20053;-64
2022/06/29 00:50:38;;;;;;;17.00;5.88;;;;;;;;;;9990052;28;20061;-63
2022/06/29 00:55:37;;;;;;;17.60;4.30;;;;;;;;;;9988406;28;20061;-63
2022/06/29 01:00:34;;;;;;;13.57;4.40;;;;;;;;;;9989651;28;20042;-63
2022/06/29 01:05:28;;;;;;;20.58;4.55;;;;;;;;;;9989757;28;20044;-63
2022/06/29 01:10:23;;;;;;;16.40;6.30;;;;;;;;;;9989724;28;20062;-63
2022/06/29 01:15:16;;;;;;;16.27;6.28;;;;;;;;;;9989225;28;20042;-64
2022/06/29 01:20:12;;;;;;;12.40;4.45;;;;;;;;;;9987669;28;20522;-63
2022/06/29 01:25:08;;;;;;;12.38;5.90;;;;;;;;;;9988920;28;20403;-63
2022/06/29 01:30:04;;;;;;;20.45;5.88;;;;;;;;;;9989255;28;20056;-63
2022/06/29 01:34:58;;;;;;;20.55;9.27;;;;;;;;;;9996548;28;20451;-63
2022/06/29 01:39:52;;;;;;;22.38;7.53;;;;;;;;;;9991698;28;20050;-64
2022/06/29 01:44:46;;;;;;;15.40;5.20;;;;;;;;;;9988368;28;20050;-63
2022/06/29 01:49:40;;;;;;;18.92;5.78;;;;;;;;;;9988423;28;20125;-63
2022/06/29 01:54:33;;;;;;;17.67;4.95;;;;;;;;;;9985793;28;20070;-64
2022/06/29 01:59:28;;;;;;;18.27;6.45;;;;;;;;;;9987826;28;20054;-63
2022/06/29 02:04:21;;;;;;;17.88;5.20;;;;;;;;;;9988945;28;20050;-63
2022/06/29 02:09:16;;;;;;;12.27;5.53;;;;;;;;;;9987239;28;20499;-63
2022/06/29 02:14:11;;;;;;;15.27;5.32;;;;;;;;;;9986216;28;20105;-63
2022/06/29 02:19:05;;;;;;;23.05;5.47;;;;;;;;;;9987105;28;20057;-63
2022/06/29 02:23:59;;;;;;;14.23;6.30;;;;;;;;;;9988194;28;20050;-63
2022/06/29 02:28:54;;;;;;;12.35;5.05;;;;;;;;;;9987574;28;20129;-63
2022/06/29 02:39:01;;;;;;;10.40;4.70;;;;;;;;;;9987352;28;20512;-64
2022/06/29 02:43:54;;;;;;;14.75;6.22;;;;;;;;;;9994570;28;20051;-63
2022/06/29 02:48:49;;;;;;;14.32;4.80;;;;;;;;;;9994929;28;20054;-64
2022/06/29 02:53:43;;;;;;;12.05;5.25;;;;;;;;;;9994306;28;20058;-63
2022/06/29 02:58:36;;;;;;;12.80;5.85;;;;;;;;;;9994714;28;20448;-63
2022/06/29 03:03:30;;;;;;;12.77;5.57;;;;;;;;;;9994503;28;20126;-63
2022/06/29 03:08:27;;;;;;;10.05;4.68;;;;;;;;;;9993769;28;20054;-63
2022/06/29 03:13:23;;;;;;;14.85;5.28;;;;;;;;;;9993897;28;20054;-63
2022/06/29 03:18:17;;;;;;;24.65;6.82;;;;;;;;;;9993935;28;20543;-63
2022/06/29 03:23:11;;;;;;;16.05;5.00;;;;;;;;;;9993982;28;20061;-63
2022/06/29 03:28:05;;;;;;;10.43;4.85;;;;;;;;;;9992853;28;20120;-63
2022/06/29 03:32:59;;;;;;;18.60;4.75;;;;;;;;;;9982697;28;20070;-63
2022/06/29 03:37:53;;;;;;;13.18;5.25;;;;;;;;;;9993347;28;20070;-65
2022/06/29 03:42:46;;;;;;;22.05;4.28;;;;;;;;;;9992643;28;20496;-65
2022/06/29 03:47:40;;;;;;;12.48;4.60;;;;;;;;;;9992339;28;20419;-63
2022/06/29 03:52:34;;;;;;;10.52;4.38;;;;;;;;;;9991376;28;20082;-64
2022/06/29 03:57:28;;;;;;;12.15;4.82;;;;;;;;;;9992749;28;20066;-64
2022/06/29 04:02:23;;;;;;;10.18;4.68;;;;;;;;;;9992076;28;20061;-64
2022/06/29 04:07:17;;;;;;;17.15;5.95;;;;;;;;;;9992254;28;20082;-64
2022/06/29 04:12:11;;;;;;;14.15;5.05;;;;;;;;;;9991874;28;20054;-64
2022/06/29 04:17:05;;;;;;;16.13;5.75;;;;;;;;;;9993514;28;20046;-64
2022/06/29 04:21:58;;;;;;;19.98;6.93;;;;;;;;;;9991994;28;20491;-64
2022/06/29 04:26:53;;;;;;;11.18;4.57;;;;;;;;;;9991345;28;20080;-63
2022/06/29 04:31:47;;;;;;;22.00;5.45;;;;;;;;;;9990989;28;20053;-63
2022/06/29 04:36:41;;;;;;;14.25;4.93;;;;;;;;;;9990641;28;20542;-63
2022/06/29 04:41:35;;;;;;;10.88;4.47;;;;;;;;;;9990183;28;20055;-63
2022/06/29 04:46:29;;;;;;;16.40;4.00;;;;;;;;;;9990134;28;20058;-63
2022/06/29 04:51:24;;;;;;;13.20;4.72;;;;;;;;;;9982446;28;20046;-62
2022/06/29 04:56:18;;;;;;;9.45;3.42;;;;;;;;;;9988844;28;20507;-62
2022/06/29 05:01:13;;;;;;;15.55;4.20;;;;;;;;;;9988657;28;20566;-63
2022/06/29 05:06:06;;;;;;;11.20;4.35;;;;;;;;;;9985579;28;20570;-63
2022/06/29 05:11:00;;;;;;;12.77;4.13;;;;;;;;;;9989475;28;20469;-63
2022/06/29 05:15:54;;;;;;;10.52;5.80;;;;;;;;;;9988351;28;20046;-63
2022/06/29 05:20:48;;;;;;;16.67;5.95;;;;;;;;;;9987761;28;20101;-62
2022/06/29 05:25:42;;;;;;;9.68;5.60;;;;;;;;;;9989095;28;20046;-63
2022/06/29 05:30:37;;;;;;;20.88;6.25;;;;;;;;;;9989224;28;20054;-62
2022/06/29 05:35:33;;;;;;;15.35;7.53;;;;;;;;;;9988407;28;20486;-63
2022/06/29 05:40:27;;;;;;;15.07;6.05;;;;;;;;;;9988713;28;20502;-63
2022/06/29 05:45:21;;;;;;;21.80;7.72;;;;;;;;;;9987924;28;20141;-63
2022/06/29 05:50:15;;;;;;;21.27;6.13;;;;;;;;;;9988215;28;20074;-63
2022/06/29 05:55:09;;;;;;;16.02;6.20;;;;;;;;;;9989111;28;20104;-63
2022/06/29 06:00:05;;;;;;;8.20;5.28;;;;;;;;;;9988331;28;20054;-63
2022/06/29 06:05:07;;;;;;;16.65;6.65;;;;;;;;;;9982906;28;20042;-64
2022/06/29 06:10:02;;;;;;;14.70;6.05;;;;;;;;;;9988204;28;20058;-63
2022/06/29 06:14:58;;;;;;;17.10;6.13;;;;;;;;;;9994316;28;20046;-69
2022/06/29 06:19:54;;;;;;;13.40;5.70;;;;;;;;;;9987344;28;20141;-70
2022/06/29 06:24:48;;;;;;;18.02;7.50;;;;;;;;;;9986855;28;20418;-70
2022/06/29 06:29:43;;;;;;;21.80;6.28;;;;;;;;;;9987954;28;20045;-70
2022/06/29 06:34:37;;;;;;;17.33;6.43;;;;;;;;;;9985556;28;20085;-69
2022/06/29 06:39:31;;;;;;;13.43;6.20;;;;;;;;;;9987254;28;20062;-70
2022/06/29 06:44:25;;;;;;;19.00;6.40;;;;;;;;;;9986043;28;20051;-69
2022/06/29 06:49:27;;;;;;;16.70;5.90;;;;;;;;;;9982740;28;20130;-68
2022/06/29 06:54:20;;;;;;;13.80;6.20;;;;;;;;;;9977107;28;20455;-62
2022/06/29 06:59:14;;;;;;;16.70;6.60;;;;;;;;;;9968551;28;20137;-66
2022/06/29 07:04:08;;;;;;;9.50;4.70;;;;;;;;;;9981311;28;20054;-66
2022/06/29 07:09:03;;;;;;;13.85;4.65;;;;;;;;;;9980858;28;20054;-66
2022/06/29 07:13:57;;;;;;;14.82;4.70;;;;;;;;;;9983361;28;20042;-66
2022/06/29 07:18:51;;;;;;;12.80;4.47;;;;;;;;;;9981123;28;20042;-66
2022/06/29 07:23:45;;;;;;;8.50;3.65;;;;;;;;;;9974947;28;20078;-67
2022/06/29 07:28:39;;;;;;;8.35;3.45;;;;;;;;;;9985308;28;20078;-65
2022/06/29 07:33:33;;;;;;;14.48;4.78;;;;;;;;;;10018957;28;20098;-66
2022/06/29 07:38:27;;;;;;;17.35;3.97;;;;;;;;;;10067675;28;20465;-67
2022/06/29 07:43:21;;;;;;;16.70;3.90;;;;;;;;;;10065848;28;20045;-66
2022/06/29 07:48:17;;;;;;;14.05;3.72;;;;;;;;;;10064403;28;20081;-66
2022/06/29 07:53:11;;;;;;;14.25;3.75;;;;;;;;;;10061848;28;20057;-67
2022/06/29 07:58:06;;;;;;;18.08;4.65;;;;;;;;;;10069393;28;20056;-66
2022/06/29 08:03:00;;;;;;;10.02;3.50;;;;;;;;;;10069669;28;20077;-67
2022/06/29 08:07:54;;;;;;;15.48;4.88;;;;;;;;;;10069236;28;20131;-67
2022/06/29 08:12:47;;;;;;;11.50;4.47;;;;;;;;;;10069307;28;20498;-67
2022/06/29 08:17:41;;;;;;;10.85;3.08;;;;;;;;;;10069378;28;20132;-67
2022/06/29 08:22:35;;;;;;;13.82;3.33;;;;;;;;;;10074718;28;20057;-67
2022/06/29 08:27:31;;;;;;;10.63;6.13;;;;;;;;;;10069895;28;20046;-74
2022/06/29 08:32:42;;;;;;;12.57;3.45;;;;;;;;;;10069032;28;20494;-80
2022/06/29 08:37:39;;;;;;;19.45;3.13;;;;;;;;;;10067866;28;20057;-61
2022/06/29 08:42:37;;;;;;;10.37;3.23;;;;;;;;;;10067937;28;20065;-62
2022/06/29 08:47:31;;;;;;;12.73;3.25;;;;;;;;;;10068633;28;20303;-61
2022/06/29 08:52:44;;;;;;;11.57;4.20;;;;;;;;;;10087558;28;20045;-61
2022/06/29 08:57:41;;;;;;;11.23;4.53;;;;;;;;;;10070054;28;20513;-64
2022/06/29 09:02:35;;;;;;;17.52;3.05;;;;;;;;;;10059896;28;20045;-64
2022/06/29 09:07:29;;;;;;;6.72;2.85;;;;;;;;;;10067317;28;20054;-64
2022/06/29 09:12:23;;;;;;;11.93;3.25;;;;;;;;;;10065695;28;20493;-64
2022/06/29 09:17:19;;;;;;;9.43;4.05;;;;;;;;;;10083180;28;20474;-65
2022/06/29 09:22:13;;;;;;;11.98;3.92;;;;;;;;;;10063013;28;20041;-64
2022/06/29 09:27:11;;;;;;;15.63;4.07;;;;;;;;;;10058789;28;20050;-65
2022/06/29 09:32:05;;;;;;;12.52;3.15;;;;;;;;;;10057126;28;20091;-65
2022/06/29 09:36:59;;;;;;;14.57;3.08;;;;;;;;;;10061479;28;20087;-65
2022/06/29 09:41:58;;;;;;;10.85;2.50;;;;;;;;;;10055568;28;20111;-65
2022/06/29 09:46:55;;;;;;;6.65;2.58;;;;;;;;;;10062217;28;20136;-65
2022/06/29 09:51:50;;;;;;;7.88;2.60;;;;;;;;;;10060772;28;20056;-67
2022/06/29 09:56:50;;;;;;;12.10;3.33;;;;;;;;;;10058270;28;20137;-67
2022/06/29 10:06:56;;;;;;;17.88;4.18;;;;;;;;;;10054042;28;20042;-67
2022/06/29 10:17:29;;;;;;;12.38;3.42;;;;;;;;;;10062806;28;20057;-65
2022/06/29 10:22:23;;;;;;;15.40;3.10;;;;;;;;;;10065393;28;20065;-65
2022/06/29 10:27:16;;;;;;;15.35;2.78;;;;;;;;;;10060000;28;20042;-66
2022/06/29 10:32:13;;;;;;;11.45;2.50;;;;;;;;;;10063018;28;20088;-66
2022/06/29 10:37:08;;;;;;;10.52;2.40;;;;;;;;;;10063089;28;20107;-66
2022/06/29 10:47:22;;;;;;;22.30;3.40;;;;;;;;;;10063197;28;20137;-66
2022/06/29 10:52:16;;;;;;;17.05;2.40;;;;;;;;;;10063075;28;20421;-66
2022/06/29 10:57:10;;;;;;;10.00;2.15;;;;;;;;;;10062166;28;20490;-66
2022/06/29 11:02:15;;;;;;;16.23;3.13;;;;;;;;;;10067218;28;20091;-65
2022/06/29 11:12:24;;;;;;;9.35;2.53;;;;;;;;;;10068419;28;20054;-65
2022/06/29 11:22:30;;;;;;;10.02;2.58;;;;;;;;;;10073087;28;20419;-65
2022/06/29 11:27:38;;;;;;;14.15;2.35;;;;;;;;;;10067110;28;20144;-65
2022/06/29 11:32:41;;;;;;;10.65;2.20;;;;;;;;;;10070335;28;20465;-66
2022/06/29 11:37:34;;;;;;;11.27;2.90;;;;;;;;;;10066977;28;20042;-66
2022/06/29 11:43:03;;;;;;;9.18;3.05;;;;;;;;;;10064483;28;20057;-66
2022/06/29 11:47:57;;;;;;;15.02;3.17;;;;;;;;;;10066248;28;20405;-65
2022/06/29 11:52:51;;;;;;;9.80;3.67;;;;;;;;;;10065873;28;20421;-66
2022/06/29 11:57:45;;;;;;;8.68;2.53;;;;;;;;;;10070753;28;20467;-66
2022/06/29 12:02:39;;;;;;;12.68;2.60;;;;;;;;;;10068732;28;20081;-66
2022/06/29 12:07:39;;;;;;;9.02;2.33;;;;;;;;;;10049505;28;20060;-66
2022/06/29 12:12:35;;;;;;;10.57;2.13;;;;;;;;;;10069853;28;20536;-66
2022/06/29 12:17:29;;;;;;;8.75;2.25;;;;;;;;;;10069467;28;20069;-66
2022/06/29 12:22:24;;;;;;;11.68;2.30;;;;;;;;;;10069897;28;20095;-66
2022/06/29 12:27:18;;;;;;;8.68;2.05;;;;;;;;;;10081967;28;20049;-66
2022/06/29 12:32:12;;;;;;;17.98;2.72;;;;;;;;;;10069308;28;20049;-66
2022/06/29 12:37:06;;;;;;;7.78;2.42;;;;;;;;;;10068999;28;20065;-66
2022/06/29 12:42:02;;;;;;;19.63;2.42;;;;;;;;;;10069690;28;20053;-65
2022/06/29 12:46:55;;;;;;;11.60;2.42;;;;;;;;;;10063008;28;20056;-66
2022/06/29 12:51:49;;;;;;;15.18;3.70;;;;;;;;;;10073416;28;20107;-66
2022/06/29 12:56:43;;;;;;;7.78;2.70;;;;;;;;;;10067170;28;20395;-66
2022/06/29 13:01:36;;;;;;;14.50;3.30;;;;;;;;;;10067867;28;20049;-66
2022/06/29 13:06:31;;;;;;;14.05;3.53;;;;;;;;;;10067898;28;20061;-66
2022/06/29 13:11:26;;;;;;;17.13;3.45;;;;;;;;;;10068697;28;20064;-66
2022/06/29 13:16:19;;;;;;;11.75;3.00;;;;;;;;;;10071987;28;20045;-66
2022/06/29 13:21:13;;;;;;;9.20;2.83;;;;;;;;;;10087043;28;20131;-66
2022/06/29 13:26:07;;;;;;;14.93;3.90;;;;;;;;;;10085143;28;20103;-65
2022/06/29 13:31:02;;;;;;;8.05;2.55;;;;;;;;;;10070082;28;20070;-65
2022/06/29 13:35:56;;;;;;;11.27;3.17;;;;;;;;;;10065901;28;20045;-67
2022/06/29 13:40:50;;;;;;;10.45;3.10;;;;;;;;;;10073308;28;20445;-66
2022/06/29 13:45:44;;;;;;;11.68;2.90;;;;;;;;;;10064873;28;20060;-68
2022/06/29 13:50:38;;;;;;;11.13;3.17;;;;;;;;;;10066602;28;20501;-68
2022/06/29 13:55:31;;;;;;;14.20;2.75;;;;;;;;;;10087798;28;20712;-66
2022/06/29 14:00:28;;;;;;;11.88;2.97;;;;;;;;;;10066724;28;20124;-60
2022/06/29 14:05:23;;;;;;;8.43;2.67;;;;;;;;;;10065910;28;20410;-61
2022/06/29 14:10:18;;;;;;;12.50;2.60;;;;;;;;;;10055285;28;20093;-61
2022/06/29 14:15:12;;;;;;;7.47;2.38;;;;;;;;;;10053684;28;20104;-61
2022/06/29 14:20:07;;;;;;;14.75;2.67;;;;;;;;;;10055945;28;20041;-61
2022/06/29 14:25:09;;;;;;;13.13;3.58;;;;;;;;;;10053938;28;20045;-62
2022/06/29 14:30:10;;;;;;;15.63;3.30;;;;;;;;;;10055865;28;20049;-62
2022/06/29 14:35:09;;;;;;;14.80;3.30;;;;;;;;;;10059728;28;20391;-62
2022/06/29 14:40:04;;;;;;;;;;;;;;;;;;10080835;28;20103;-61
2022/06/29 14:44:59;;;;;;;18.27;3.60;;;;;;;;;;10070318;28;19928;-62
2022/06/29 14:49:53;;;;;;;9.30;2.80;;;;;;;;;;10077095;28;20049;-60
2022/06/29 14:54:48;;;;;;;10.65;2.90;;;;;;;;;;10088496;28;20459;-61
2022/06/29 14:59:43;;;;;;;8.75;3.70;;;;;;;;;;10073974;28;20454;-61
2022/06/29 15:04:38;;;;;;;13.77;2.65;;;;;;;;;;10084423;28;20057;-61
2022/06/29 15:09:33;;;;;;;10.18;2.72;;;;;;;;;;10071548;28;20500;-61
2022/06/29 15:14:27;;;;;;;9.10;2.17;;;;;;;;;;10072992;28;20046;-61
2022/06/29 15:19:21;;;;;;;4.28;2.08;;;;;;;;;;10071784;28;20057;-61
2022/06/29 15:24:16;;;;;;;10.63;3.60;;;;;;;;;;10065288;28;20064;-62
2022/06/29 15:29:09;;;;;;;9.85;2.83;;;;;;;;;;10061647;28;20049;-62
2022/06/29 15:39:17;;;;;;;8.95;2.30;;;;;;;;;;10062477;28;20053;-61
2022/06/29 15:44:11;;;;;;;8.35;2.35;;;;;;;;;;10063989;28;20502;-62
2022/06/29 15:49:06;;;;;;;14.15;1.92;;;;;;;;;;10068360;28;20050;-62
2022/06/29 15:59:12;;;;;;;10.38;2.72;;;;;;;;;;10068878;28;20128;-62
2022/06/29 16:04:07;;;;;;;10.77;2.70;;;;;;;;;;10066394;28;20046;-63
2022/06/29 16:09:01;;;;;;;8.75;2.10;;;;;;;;;;10067067;28;20482;-62
2022/06/29 16:13:54;;;;;;;6.85;2.55;;;;;;;;;;10066101;28;20042;-62
2022/06/29 16:18:48;;;;;;;11.63;1.83;;;;;;;;;;10067886;28;20445;-62
2022/06/29 16:23:43;;;;;;;10.85;2.92;;;;;;;;;;10066010;28;20525;-62
2022/06/29 16:28:41;;;;;;;12.65;2.30;;;;;;;;;;10063359;28;20445;-62
2022/06/29 16:33:34;;;;;;;8.80;2.03;;;;;;;;;;10063302;28;20053;-62
2022/06/29 16:38:28;;;;;;;8.15;2.08;;;;;;;;;;10070063;28;20107;-66
2022/06/29 16:43:23;;;;;;;8.30;1.83;;;;;;;;;;10062641;28;20057;-62
2022/06/29 16:48:17;;;;;;;10.73;2.30;;;;;;;;;;10064398;28;20049;-62
2022/06/29 16:53:10;;;;;;;13.77;2.10;;;;;;;;;;10063111;28;20054;-62
2022/06/29 16:58:05;;;;;;;7.07;2.17;;;;;;;;;;10062555;28;20056;-62
2022/06/29 17:02:59;;;;;;;10.63;2.70;;;;;;;;;;10060848;28;20088;-62
2022/06/29 17:07:53;;;;;;;9.02;2.85;;;;;;;;;;10063718;28;20029;-62
2022/06/29 17:12:51;;;;;;;11.73;2.67;;;;;;;;;;10061205;28;20087;-62
2022/06/29 17:17:45;;;;;;;10.52;2.40;;;;;;;;;;10065754;28;20120;-62
2022/06/29 17:22:39;;;;;;;11.60;2.92;;;;;;;;;;10066821;28;20091;-62
2022/06/29 17:27:34;;;;;;;10.98;2.47;;;;;;;;;;10059339;28;20540;-63
2022/06/29 17:32:28;;;;;;;15.15;3.80;;;;;;;;;;10061087;28;20045;-62
2022/06/29 17:37:21;;;;;;;14.23;4.18;;;;;;;;;;10057810;28;20485;-62
2022/06/29 17:42:15;;;;;;;10.13;2.90;;;;;;;;;;10061507;28;20144;-62
2022/06/29 17:47:10;;;;;;;13.98;3.03;;;;;;;;;;10063387;28;20107;-62
2022/06/29 17:52:06;;;;;;;11.73;3.20;;;;;;;;;;10059874;28;20045;-62
2022/06/29 17:57:00;;;;;;;12.43;3.35;;;;;;;;;;10064662;28;20041;-62
2022/06/29 18:01:55;;;;;;;10.35;2.78;;;;;;;;;;10066819;28;20132;-62
2022/06/29 18:06:49;;;;;;;12.57;3.88;;;;;;;;;;10066249;28;20053;-62
2022/06/29 18:11:43;;;;;;;14.88;3.42;;;;;;;;;;10066013;28;20152;-62
2022/06/29 18:16:37;;;;;;;12.95;3.90;;;;;;;;;;10074045;28;20054;-62
2022/06/29 18:21:31;;;;;;;9.73;3.95;;;;;;;;;;10067139;28;20115;-62
2022/06/29 18:26:27;;;;;;;19.50;4.55;;;;;;;;;;10066833;28;20045;-61
2022/06/29 18:31:21;;;;;;;18.17;6.30;;;;;;;;;;10066342;28;20050;-62
2022/06/29 18:36:15;;;;;;;17.20;5.90;;;;;;;;;;10068092;28;20128;-61
2022/06/29 18:41:09;;;;;;;17.27;6.05;;;;;;;;;;10074891;28;20053;-61
2022/06/29 18:46:03;;;;;;;23.35;7.90;;;;;;;;;;10066384;28;20456;-61
2022/06/29 18:50:57;;;;;;;22.67;4.75;;;;;;;;;;10061727;28;20391;-61
2022/06/29 18:55:50;;;;;;;16.02;3.80;;;;;;;;;;10066535;28;20050;-61
2022/06/29 19:00:44;;;;;;;14.52;5.22;;;;;;;;;;10065657;28;20079;-62
2022/06/29 19:05:38;;;;;;;20.92;5.15;;;;;;;;;;10079069;28;20081;-61
2022/06/29 19:10:32;;;;;;;8.20;3.40;;;;;;;;;;10092963;28;20072;-62
2022/06/29 19:15:26;;;;;;;19.17;5.13;;;;;;;;;;10065481;28;20461;-61
2022/06/29 19:20:19;;;;;;;15.48;3.28;;;;;;;;;;10067335;28;20160;-61
2022/06/29 19:25:14;;;;;;;10.95;3.25;;;;;;;;;;10084900;28;20498;-71
2022/06/29 19:30:10;;;;;;;17.70;3.05;;;;;;;;;;10071922;28;20049;-70
2022/06/29 19:35:05;;;;;;;20.87;4.27;;;;;;;;;;10083027;28;20132;-72
2022/06/29 19:39:59;;;;;;;12.35;2.67;;;;;;;;;;10073064;28;20406;-72
2022/06/29 19:44:53;;;;;;;11.23;4.22;;;;;;;;;;10070753;28;20529;-72
2022/06/29 19:49:46;;;;;;;18.23;5.00;;;;;;;;;;10071185;28;20096;-72
2022/06/29 19:54:40;;;;;;;11.95;3.78;;;;;;;;;;10074510;28;20133;-71
2022/06/29 19:59:33;;;;;;;20.67;4.50;;;;;;;;;;10074691;28;20045;-71
2022/06/29 20:04:27;;;;;;;14.50;3.65;;;;;;;;;;10072730;28;20053;-71
2022/06/29 20:09:21;;;;;;;11.63;3.58;;;;;;;;;;10075771;28;20045;-68
2022/06/29 20:14:17;;;;;;;12.57;4.30;;;;;;;;;;10091661;28;20040;-70
2022/06/29 20:19:11;;;;;;;15.45;3.47;;;;;;;;;;10095168;28;20075;-69
2022/06/29 20:24:06;;;;;;;16.27;3.60;;;;;;;;;;10089629;28;20140;-71
2022/06/29 20:29:00;;;;;;;16.42;3.85;;;;;;;;;;10083830;28;20053;-71
2022/06/29 20:33:54;;;;;;;12.75;3.03;;;;;;;;;;10062544;28;20073;-72
2022/06/29 20:38:48;;;;;;;19.92;5.35;;;;;;;;;;10064383;28;20045;-71
2022/06/29 20:48:54;;;;;;;10.95;2.95;;;;;;;;;;10062539;28;20049;-69
2022/06/29 20:53:52;;;;;;;10.98;3.20;;;;;;;;;;10063355;28;20061;-70
2022/06/29 20:58:45;;;;;;;12.48;3.75;;;;;;;;;;10064177;28;20494;-73
2022/06/29 21:03:39;;;;;;;7.55;2.83;;;;;;;;;;10050403;28;20050;-72
2022/06/29 21:08:33;;;;;;;22.55;3.45;;;;;;;;;;10064862;28;20050;-72
2022/06/29 21:13:28;;;;;;;15.20;4.15;;;;;;;;;;10064811;28;20049;-72
2022/06/29 21:18:23;;;;;;;9.80;4.40;;;;;;;;;;10057086;28;20060;-71
2022/06/29 21:23:18;;;;;;;16.13;5.45;;;;;;;;;;10056774;28;20116;-76
2022/06/29 21:28:12;;;;;;;17.40;4.97;;;;;;;;;;10054768;28;20089;-71
2022/06/29 21:33:07;;;;;;;9.63;4.88;;;;;;;;;;10060547;28;20499;-72
2022/06/29 21:38:03;;;;;;;9.60;4.63;;;;;;;;;;10053480;28;20064;-70
2022/06/29 21:43:01;;;;;;;18.13;4.82;;;;;;;;;;10037301;28;20502;-69
2022/06/29 21:48:06;;;;;;;13.60;3.97;;;;;;;;;;10043667;28;20124;-67
2022/06/29 21:53:02;;;;;;;14.82;5.18;;;;;;;;;;10043140;28;20054;-70
2022/06/29 21:57:56;;;;;;;23.25;5.90;;;;;;;;;;10063700;28;20041;-72
2022/06/29 22:02:52;;;;;;;16.85;5.15;;;;;;;;;;10083689;28;20412;-75
2022/06/29 22:07:48;;;;;;;15.65;5.10;;;;;;;;;;10078139;28;20049;-74
2022/06/29 22:12:42;;;;;;;14.43;4.45;;;;;;;;;;10082016;28;20053;-74
2022/06/29 22:17:40;;;;;;;11.27;4.80;;;;;;;;;;10074812;28;20101;-75
2022/06/29 22:22:34;;;;;;;14.88;4.15;;;;;;;;;;10087000;28;20056;-73
2022/06/29 22:27:29;;;;;;;15.07;4.13;;;;;;;;;;10083638;28;20134;-73
2022/06/29 22:32:23;;;;;;;12.25;4.63;;;;;;;;;;10084472;28;20057;-73
2022/06/29 22:37:17;;;;;;;13.88;4.43;;;;;;;;;;10084291;28;20140;-73
2022/06/29 22:42:12;;;;;;;7.25;3.67;;;;;;;;;;10082993;28;20056;-74
2022/06/29 22:47:11;;;;;;;9.10;3.97;;;;;;;;;;10080023;28;20077;-73
2022/06/29 22:52:07;;;;;;;12.30;4.57;;;;;;;;;;10078303;28;20052;-73
2022/06/29 22:57:21;;;;;;;17.70;5.15;;;;;;;;;;10082747;28;20140;-72
2022/06/29 23:02:16;;;;;;;13.90;4.13;;;;;;;;;;10093036;28;20056;-74
2022/06/29 23:07:10;;;;;;;10.10;4.07;;;;;;;;;;10093200;28;20041;-72
2022/06/29 23:17:21;;;;;;;11.52;3.65;;;;;;;;;;10095145;28;20049;-71
2022/06/29 23:22:19;;;;;;;8.10;4.00;;;;;;;;;;10090276;28;20053;-71
2022/06/29 23:27:12;;;;;;;10.35;3.38;;;;;;;;;;10081445;28;20056;-74
2022/06/29 23:32:07;;;;;;;11.77;2.92;;;;;;;;;;10072153;28;20137;-74
2022/06/29 23:37:02;;;;;;;9.10;2.83;;;;;;;;;;10072107;28;20140;-74
2022/06/29 23:41:56;;;;;;;4.43;3.10;;;;;;;;;;10072684;28;20136;-74
2022/06/29 23:46:53;;;;;;;9.90;3.80;;;;;;;;;;10071986;28;20057;-74
2022/06/29 23:51:47;;;;;;;7.07;3.10;;;;;;;;;;10071482;28;20045;-74
2022/06/29 23:56:42;;;;;;;13.48;3.78;;;;;;;;;;10072262;28;20128;-74
